KHST/HST METAR and TAF weather

Enter ICAO airport designator
Station Type Date Time Source
KHST METAR 2020/01/26 03:56 UTC NOAA

KHST 260356Z AUTO 30003KT 10SM CLR 17/15 A3008 RMK AO2 SLP189 T01680150 $


Station Type Date Time Source
KHST Decoded METAR 2020/01/26 03:56 UTC NOAA

Homestead Air Force Base, FL, United States (KHST) 25-29N 080-23W
Jan 25, 2020 - 10:56 PM EST / 2020.01.26 0356 UTC
Wind: from the WNW (300 degrees) at 3 MPH (3 KT):0
Visibility: 10 mile(s):0
Sky conditions: clear
Temperature: 62.2 F (16.8 C)
Dew Point: 59.0 F (15.0 C)
Relative Humidity: 89%
Pressure (altimeter): 30.08 in. Hg (1018 hPa)
ob: KHST 260356Z AUTO 30003KT 10SM CLR 17/15 A3008 RMK AO2 SLP189 T01680150
cycle: 4

Station Type Date Time Source
KHST TAF 2020/01/26 04:03 UTC NOAA

TAF KHST 260400Z 2604/2710 VRB05KT 9999 FEW065 QNH3005INS
BECMG 2616/2617 08009KT 9999 FEW250 QNH3001INS
BECMG 2623/2624 10005KT 9999 FEW025 FEW250 QNH2997INS TX26/2621Z TN12/2704Z

Example: see airport list